Sioux Gateway Col. Bud Day Field
KSUX : now visible

Airfield :











YOU CAN JOIN US ON...

 
LOGIN :

Register | Disclaimer

   EN    FR    IT 

 









Legend :    VFR   Marginal VFR   IFR   Intensive IFR   Very Intensive IFR
Visi :
Ceiling :
>= 8 km
>= 3000ft
5 to 8 km
1000 to 3000 ft
1500m to 5 km
500 to 1000 ft
800 to 1500m
200 to 500 ft
< 800m
< 200 ft
Symbols :   Thunderstorms  Fog  Heavy snow  Heavy precipitations  Wind > 20 kt






- Airport Elevation : 1098 ft
- IATA code : SUX


KSUX - Sioux Gateway Col. Bud Day Field

CURRENT METAR :
  • 271452Z 33014G20KT 10SM CLR 21/12 A2989 RMK AO2 SLP116 T02060117 51008

EXPIRED METARs :
  • 271352Z 32014KT 10SM CLR 19/12 A2989 RMK AO2 SLP116 T01890117
  • 271252Z 32010KT 10SM CLR 17/12 A2988 RMK AO2 SLP113 T01670122
  • 271152Z 31005KT 10SM CLR 16/12 A2986 RMK AO2 SLP107 T01560122 10167 20139 53019
  • 271052Z 31004KT 10SM BKN095 OVC120 16/12 A2983 RMK AO2 SLP096 T01560117

TAF KSUX
Valid from the 27 at 15:00 until the 28 at 12:00 UTC


271523Z 2715/2812 32014G21KT P6SM BKN080
FM271700 32018G29KT P6SM BKN060
FM280000 32013G24KT P6SM SCT060
FM280200 32012KT P6SM FEW070
FM280700 29004KT P6SM FEW100
KZMP FIR / North America



MET'MAP, your aeronautical weather chart ! - Copyright ORBIFLY December 2007 - Disclaimer

ORBIFLY MET'MAP TEAM :

Programming & Development : Alexandra Zaïnal
Original concept : Baudouin d'Aumeries
Technical & hardware support : Manuel Goepfert
Assistance : Marc-Olivier Méhu




SOURCES & CREDITS :

   NOAA       Earth
Advisory